sensor_id;sensor_type;location;lat;lon;timestamp;P1;durP1;ratioP1;P2;durP2;ratioP2
24102;SDS011;12278;53.058;9.028;2022-12-18T00:01:16;20.40;;;14.23;;
24102;SDS011;12278;53.058;9.028;2022-12-18T00:05:17;19.37;;;12.67;;
24102;SDS011;12278;53.058;9.028;2022-12-18T00:09:18;18.53;;;12.03;;
24102;SDS011;12278;53.058;9.028;2022-12-18T00:13:20;17.23;;;12.37;;
24102;SDS011;12278;53.058;9.028;2022-12-18T00:17:21;18.40;;;12.50;;
24102;SDS011;12278;53.058;9.028;2022-12-18T00:21:22;19.40;;;13.50;;
24102;SDS011;12278;53.058;9.028;2022-12-18T00:25:22;17.50;;;12.53;;
24102;SDS011;12278;53.058;9.028;2022-12-18T00:29:23;20.40;;;11.27;;
24102;SDS011;12278;53.058;9.028;2022-12-18T00:33:24;19.07;;;12.43;;
24102;SDS011;12278;53.058;9.028;2022-12-18T00:37:24;20.53;;;13.03;;
24102;SDS011;12278;53.058;9.028;2022-12-18T00:41:25;18.20;;;11.70;;
24102;SDS011;12278;53.058;9.028;2022-12-18T00:45:46;18.17;;;12.13;;
24102;SDS011;12278;53.058;9.028;2022-12-18T00:49:46;16.17;;;10.90;;
24102;SDS011;12278;53.058;9.028;2022-12-18T00:53:47;19.90;;;12.33;;
24102;SDS011;12278;53.058;9.028;2022-12-18T01:02:02;16.53;;;10.53;;
24102;SDS011;12278;53.058;9.028;2022-12-18T01:06:06;17.77;;;10.83;;
24102;SDS011;12278;53.058;9.028;2022-12-18T01:10:10;19.00;;;11.93;;
24102;SDS011;12278;53.058;9.028;2022-12-18T01:14:15;15.90;;;11.27;;
24102;SDS011;12278;53.058;9.028;2022-12-18T01:18:16;20.87;;;11.77;;
24102;SDS011;12278;53.058;9.028;2022-12-18T01:22:17;15.57;;;11.23;;
24102;SDS011;12278;53.058;9.028;2022-12-18T01:26:18;18.07;;;10.63;;
24102;SDS011;12278;53.058;9.028;2022-12-18T01:30:34;14.53;;;11.10;;
24102;SDS011;12278;53.058;9.028;2022-12-18T01:34:35;14.73;;;10.27;;
24102;SDS011;12278;53.058;9.028;2022-12-18T01:38:36;15.83;;;9.47;;
24102;SDS011;12278;53.058;9.028;2022-12-18T01:42:37;15.00;;;10.17;;
24102;SDS011;12278;53.058;9.028;2022-12-18T01:46:38;17.10;;;10.73;;
24102;SDS011;12278;53.058;9.028;2022-12-18T01:50:39;16.43;;;9.87;;
24102;SDS011;12278;53.058;9.028;2022-12-18T01:54:41;15.20;;;10.67;;
24102;SDS011;12278;53.058;9.028;2022-12-18T02:02:50;17.27;;;9.93;;
24102;SDS011;12278;53.058;9.028;2022-12-18T02:07:36;15.07;;;9.27;;
24102;SDS011;12278;53.058;9.028;2022-12-18T02:11:39;15.80;;;9.93;;
24102;SDS011;12278;53.058;9.028;2022-12-18T02:16:00;15.00;;;8.93;;
24102;SDS011;12278;53.058;9.028;2022-12-18T02:28:41;16.80;;;9.83;;
24102;SDS011;12278;53.058;9.028;2022-12-18T02:32:50;12.53;;;9.90;;
24102;SDS011;12278;53.058;9.028;2022-12-18T02:36:53;15.40;;;9.60;;
24102;SDS011;12278;53.058;9.028;2022-12-18T02:40:58;19.70;;;10.60;;
24102;SDS011;12278;53.058;9.028;2022-12-18T02:45:00;13.57;;;9.13;;
24102;SDS011;12278;53.058;9.028;2022-12-18T02:49:03;15.57;;;10.13;;
24102;SDS011;12278;53.058;9.028;2022-12-18T02:54:00;14.63;;;9.67;;
24102;SDS011;12278;53.058;9.028;2022-12-18T03:06:35;11.27;;;8.23;;
24102;SDS011;12278;53.058;9.028;2022-12-18T03:10:42;12.87;;;8.70;;
24102;SDS011;12278;53.058;9.028;2022-12-18T03:19:14;12.77;;;8.83;;
24102;SDS011;12278;53.058;9.028;2022-12-18T03:23:24;15.83;;;9.27;;
24102;SDS011;12278;53.058;9.028;2022-12-18T03:27:30;11.60;;;7.67;;
24102;SDS011;12278;53.058;9.028;2022-12-18T03:31:33;12.50;;;8.23;;
24102;SDS011;12278;53.058;9.028;2022-12-18T03:35:37;15.43;;;9.17;;
24102;SDS011;12278;53.058;9.028;2022-12-18T03:39:41;16.10;;;8.73;;
24102;SDS011;12278;53.058;9.028;2022-12-18T03:52:09;14.20;;;8.03;;
24102;SDS011;12278;53.058;9.028;2022-12-18T03:56:19;14.60;;;8.63;;
24102;SDS011;12278;53.058;9.028;2022-12-18T04:00:22;10.87;;;8.33;;
24102;SDS011;12278;53.058;9.028;2022-12-18T04:04:23;13.97;;;8.37;;
24102;SDS011;12278;53.058;9.028;2022-12-18T04:08:25;14.77;;;8.47;;
24102;SDS011;12278;53.058;9.028;2022-12-18T04:16:59;12.53;;;7.23;;
24102;SDS011;12278;53.058;9.028;2022-12-18T04:21:00;17.77;;;8.73;;
24102;SDS011;12278;53.058;9.028;2022-12-18T04:25:01;12.23;;;8.30;;
24102;SDS011;12278;53.058;9.028;2022-12-18T04:29:01;12.30;;;8.00;;
24102;SDS011;12278;53.058;9.028;2022-12-18T04:33:09;13.00;;;8.43;;
24102;SDS011;12278;53.058;9.028;2022-12-18T04:37:11;14.53;;;8.30;;
24102;SDS011;12278;53.058;9.028;2022-12-18T04:41:11;13.73;;;8.37;;
24102;SDS011;12278;53.058;9.028;2022-12-18T04:45:12;13.07;;;8.13;;
24102;SDS011;12278;53.058;9.028;2022-12-18T04:49:13;17.37;;;7.67;;
24102;SDS011;12278;53.058;9.028;2022-12-18T04:53:22;12.30;;;8.60;;
24102;SDS011;12278;53.058;9.028;2022-12-18T04:57:23;13.67;;;8.73;;
24102;SDS011;12278;53.058;9.028;2022-12-18T05:01:23;11.60;;;8.20;;
24102;SDS011;12278;53.058;9.028;2022-12-18T05:05:24;13.37;;;7.67;;
24102;SDS011;12278;53.058;9.028;2022-12-18T05:09:25;13.53;;;8.90;;
24102;SDS011;12278;53.058;9.028;2022-12-18T05:13:26;12.67;;;7.50;;
24102;SDS011;12278;53.058;9.028;2022-12-18T05:17:27;13.50;;;8.13;;
24102;SDS011;12278;53.058;9.028;2022-12-18T05:21:28;11.43;;;7.73;;
24102;SDS011;12278;53.058;9.028;2022-12-18T05:25:28;12.47;;;8.40;;
24102;SDS011;12278;53.058;9.028;2022-12-18T05:29:29;11.83;;;7.37;;
24102;SDS011;12278;53.058;9.028;2022-12-18T05:33:31;13.67;;;7.67;;
24102;SDS011;12278;53.058;9.028;2022-12-18T05:37:33;11.63;;;7.53;;
24102;SDS011;12278;53.058;9.028;2022-12-18T05:41:33;9.03;;;6.93;;
24102;SDS011;12278;53.058;9.028;2022-12-18T05:45:36;12.37;;;8.07;;
24102;SDS011;12278;53.058;9.028;2022-12-18T05:49:38;10.93;;;7.57;;
24102;SDS011;12278;53.058;9.028;2022-12-18T05:53:38;12.07;;;8.17;;
24102;SDS011;12278;53.058;9.028;2022-12-18T05:57:39;11.53;;;7.57;;
24102;SDS011;12278;53.058;9.028;2022-12-18T06:01:40;10.97;;;7.23;;
24102;SDS011;12278;53.058;9.028;2022-12-18T06:05:42;10.60;;;7.43;;
24102;SDS011;12278;53.058;9.028;2022-12-18T06:09:43;14.63;;;7.90;;
24102;SDS011;12278;53.058;9.028;2022-12-18T06:13:44;10.50;;;8.10;;
24102;SDS011;12278;53.058;9.028;2022-12-18T06:17:45;11.70;;;7.40;;
24102;SDS011;12278;53.058;9.028;2022-12-18T06:21:46;9.77;;;7.03;;
24102;SDS011;12278;53.058;9.028;2022-12-18T06:25:48;11.60;;;6.83;;
24102;SDS011;12278;53.058;9.028;2022-12-18T06:29:48;12.70;;;7.70;;
24102;SDS011;12278;53.058;9.028;2022-12-18T06:33:49;9.87;;;6.90;;
24102;SDS011;12278;53.058;9.028;2022-12-18T06:37:52;8.97;;;6.83;;
24102;SDS011;12278;53.058;9.028;2022-12-18T06:41:52;10.97;;;7.00;;
24102;SDS011;12278;53.058;9.028;2022-12-18T06:45:58;12.37;;;8.20;;
24102;SDS011;12278;53.058;9.028;2022-12-18T06:49:59;11.60;;;7.93;;
24102;SDS011;12278;53.058;9.028;2022-12-18T06:54:04;12.37;;;8.13;;
24102;SDS011;12278;53.058;9.028;2022-12-18T06:58:05;12.57;;;7.83;;
24102;SDS011;12278;53.058;9.028;2022-12-18T07:02:09;11.50;;;7.43;;
24102;SDS011;12278;53.058;9.028;2022-12-18T07:06:16;12.93;;;7.63;;
24102;SDS011;12278;53.058;9.028;2022-12-18T07:10:19;11.80;;;8.30;;
24102;SDS011;12278;53.058;9.028;2022-12-18T07:14:19;11.23;;;6.80;;
24102;SDS011;12278;53.058;9.028;2022-12-18T07:18:20;11.50;;;7.03;;
24102;SDS011;12278;53.058;9.028;2022-12-18T07:22:21;10.77;;;7.80;;
24102;SDS011;12278;53.058;9.028;2022-12-18T07:26:22;12.00;;;7.10;;
24102;SDS011;12278;53.058;9.028;2022-12-18T07:30:32;10.57;;;6.83;;
24102;SDS011;12278;53.058;9.028;2022-12-18T07:34:33;9.13;;;7.27;;
24102;SDS011;12278;53.058;9.028;2022-12-18T07:38:34;13.83;;;8.07;;
24102;SDS011;12278;53.058;9.028;2022-12-18T07:42:35;10.73;;;7.43;;
24102;SDS011;12278;53.058;9.028;2022-12-18T07:46:39;8.70;;;6.37;;
24102;SDS011;12278;53.058;9.028;2022-12-18T07:50:40;13.93;;;7.20;;
24102;SDS011;12278;53.058;9.028;2022-12-18T07:54:59;10.17;;;6.73;;
24102;SDS011;12278;53.058;9.028;2022-12-18T07:59:00;9.73;;;6.97;;
24102;SDS011;12278;53.058;9.028;2022-12-18T08:03:03;8.13;;;6.33;;
24102;SDS011;12278;53.058;9.028;2022-12-18T08:07:04;10.73;;;7.93;;
24102;SDS011;12278;53.058;9.028;2022-12-18T08:11:04;11.93;;;8.93;;
24102;SDS011;12278;53.058;9.028;2022-12-18T08:15:05;10.77;;;7.40;;
24102;SDS011;12278;53.058;9.028;2022-12-18T08:19:06;10.67;;;6.87;;
24102;SDS011;12278;53.058;9.028;2022-12-18T08:23:10;13.77;;;7.77;;
24102;SDS011;12278;53.058;9.028;2022-12-18T08:27:10;12.43;;;7.73;;
24102;SDS011;12278;53.058;9.028;2022-12-18T08:31:11;9.93;;;7.53;;
24102;SDS011;12278;53.058;9.028;2022-12-18T08:35:12;11.90;;;7.30;;
24102;SDS011;12278;53.058;9.028;2022-12-18T08:39:12;11.70;;;7.47;;
24102;SDS011;12278;53.058;9.028;2022-12-18T08:43:13;8.90;;;6.87;;
24102;SDS011;12278;53.058;9.028;2022-12-18T08:47:32;10.13;;;7.60;;
24102;SDS011;12278;53.058;9.028;2022-12-18T08:51:33;9.07;;;7.13;;
24102;SDS011;12278;53.058;9.028;2022-12-18T08:55:34;12.67;;;7.30;;
24102;SDS011;12278;53.058;9.028;2022-12-18T08:59:34;9.67;;;7.20;;
24102;SDS011;12278;53.058;9.028;2022-12-18T09:03:35;10.73;;;6.50;;
24102;SDS011;12278;53.058;9.028;2022-12-18T09:07:36;9.57;;;6.77;;
24102;SDS011;12278;53.058;9.028;2022-12-18T09:11:37;12.77;;;8.10;;
24102;SDS011;12278;53.058;9.028;2022-12-18T09:15:42;9.03;;;7.17;;
24102;SDS011;12278;53.058;9.028;2022-12-18T09:19:47;9.47;;;6.27;;
24102;SDS011;12278;53.058;9.028;2022-12-18T09:23:49;8.30;;;6.83;;
24102;SDS011;12278;53.058;9.028;2022-12-18T09:27:51;11.93;;;7.67;;
24102;SDS011;12278;53.058;9.028;2022-12-18T09:31:51;8.20;;;6.47;;
24102;SDS011;12278;53.058;9.028;2022-12-18T09:35:52;8.20;;;6.00;;
24102;SDS011;12278;53.058;9.028;2022-12-18T09:39:52;7.87;;;7.07;;
24102;SDS011;12278;53.058;9.028;2022-12-18T09:43:54;9.33;;;6.13;;
24102;SDS011;12278;53.058;9.028;2022-12-18T09:47:59;8.33;;;6.17;;
24102;SDS011;12278;53.058;9.028;2022-12-18T09:52:11;7.03;;;5.97;;
24102;SDS011;12278;53.058;9.028;2022-12-18T09:56:18;9.00;;;6.03;;
24102;SDS011;12278;53.058;9.028;2022-12-18T10:00:23;8.57;;;6.47;;
24102;SDS011;12278;53.058;9.028;2022-12-18T10:04:25;9.33;;;6.13;;
24102;SDS011;12278;53.058;9.028;2022-12-18T10:13:02;10.03;;;6.17;;
24102;SDS011;12278;53.058;9.028;2022-12-18T10:17:25;10.07;;;6.43;;
24102;SDS011;12278;53.058;9.028;2022-12-18T10:21:33;9.00;;;5.67;;
24102;SDS011;12278;53.058;9.028;2022-12-18T10:25:51;8.23;;;5.30;;
24102;SDS011;12278;53.058;9.028;2022-12-18T10:29:58;9.27;;;6.20;;
24102;SDS011;12278;53.058;9.028;2022-12-18T10:34:00;9.90;;;5.23;;
24102;SDS011;12278;53.058;9.028;2022-12-18T10:42:09;7.87;;;5.33;;
24102;SDS011;12278;53.058;9.028;2022-12-18T10:46:19;8.13;;;5.83;;
24102;SDS011;12278;53.058;9.028;2022-12-18T10:50:28;9.67;;;6.27;;
24102;SDS011;12278;53.058;9.028;2022-12-18T10:54:34;11.33;;;5.67;;
24102;SDS011;12278;53.058;9.028;2022-12-18T10:58:36;8.80;;;5.27;;
24102;SDS011;12278;53.058;9.028;2022-12-18T11:02:38;7.73;;;5.27;;
24102;SDS011;12278;53.058;9.028;2022-12-18T11:06:52;8.63;;;6.00;;
24102;SDS011;12278;53.058;9.028;2022-12-18T11:10:56;7.13;;;5.23;;
24102;SDS011;12278;53.058;9.028;2022-12-18T11:14:57;8.13;;;5.67;;
24102;SDS011;12278;53.058;9.028;2022-12-18T11:23:33;8.27;;;5.80;;
24102;SDS011;12278;53.058;9.028;2022-12-18T11:27:36;7.20;;;5.57;;
24102;SDS011;12278;53.058;9.028;2022-12-18T11:31:38;10.00;;;6.03;;
24102;SDS011;12278;53.058;9.028;2022-12-18T11:35:49;9.30;;;5.63;;
24102;SDS011;12278;53.058;9.028;2022-12-18T11:40:04;8.37;;;4.80;;
24102;SDS011;12278;53.058;9.028;2022-12-18T11:44:14;13.33;;;6.90;;
24102;SDS011;12278;53.058;9.028;2022-12-18T11:48:27;8.33;;;5.50;;
24102;SDS011;12278;53.058;9.028;2022-12-18T11:52:39;9.77;;;5.70;;
24102;SDS011;12278;53.058;9.028;2022-12-18T11:57:19;6.77;;;4.90;;
24102;SDS011;12278;53.058;9.028;2022-12-18T12:40:19;7.93;;;5.77;;
24102;SDS011;12278;53.058;9.028;2022-12-18T12:44:33;10.23;;;6.47;;
24102;SDS011;12278;53.058;9.028;2022-12-18T12:53:05;7.80;;;5.70;;
24102;SDS011;12278;53.058;9.028;2022-12-18T12:57:10;10.57;;;5.93;;
24102;SDS011;12278;53.058;9.028;2022-12-18T13:09:32;8.10;;;6.47;;
24102;SDS011;12278;53.058;9.028;2022-12-18T13:13:47;10.07;;;5.33;;
24102;SDS011;12278;53.058;9.028;2022-12-18T13:22:25;11.13;;;6.37;;
24102;SDS011;12278;53.058;9.028;2022-12-18T13:26:38;8.33;;;5.50;;
24102;SDS011;12278;53.058;9.028;2022-12-18T13:30:55;6.30;;;5.03;;
24102;SDS011;12278;53.058;9.028;2022-12-18T13:39:33;8.03;;;5.23;;
24102;SDS011;12278;53.058;9.028;2022-12-18T13:43:41;6.93;;;5.40;;
24102;SDS011;12278;53.058;9.028;2022-12-18T13:47:50;8.50;;;5.47;;
24102;SDS011;12278;53.058;9.028;2022-12-18T13:51:57;7.37;;;4.90;;
24102;SDS011;12278;53.058;9.028;2022-12-18T13:55:58;8.00;;;5.80;;
24102;SDS011;12278;53.058;9.028;2022-12-18T14:04:32;9.43;;;5.33;;
24102;SDS011;12278;53.058;9.028;2022-12-18T14:08:42;9.60;;;5.97;;
24102;SDS011;12278;53.058;9.028;2022-12-18T14:12:46;9.13;;;5.13;;
24102;SDS011;12278;53.058;9.028;2022-12-18T14:16:57;7.77;;;5.33;;
24102;SDS011;12278;53.058;9.028;2022-12-18T14:21:00;10.07;;;5.00;;
24102;SDS011;12278;53.058;9.028;2022-12-18T14:29:28;7.87;;;5.13;;
24102;SDS011;12278;53.058;9.028;2022-12-18T14:33:30;9.17;;;4.50;;
24102;SDS011;12278;53.058;9.028;2022-12-18T14:37:30;9.23;;;5.83;;
24102;SDS011;12278;53.058;9.028;2022-12-18T14:41:31;6.97;;;5.00;;
24102;SDS011;12278;53.058;9.028;2022-12-18T14:45:36;8.70;;;5.27;;
24102;SDS011;12278;53.058;9.028;2022-12-18T14:49:38;7.73;;;5.83;;
24102;SDS011;12278;53.058;9.028;2022-12-18T14:53:44;5.00;;;4.50;;
24102;SDS011;12278;53.058;9.028;2022-12-18T14:57:49;5.93;;;4.57;;
24102;SDS011;12278;53.058;9.028;2022-12-18T15:06:37;8.73;;;5.07;;
24102;SDS011;12278;53.058;9.028;2022-12-18T15:10:45;6.50;;;4.17;;
24102;SDS011;12278;53.058;9.028;2022-12-18T15:14:47;7.67;;;5.57;;
24102;SDS011;12278;53.058;9.028;2022-12-18T15:18:49;6.57;;;4.47;;
24102;SDS011;12278;53.058;9.028;2022-12-18T15:22:53;8.53;;;4.23;;
24102;SDS011;12278;53.058;9.028;2022-12-18T15:26:54;6.63;;;5.13;;
24102;SDS011;12278;53.058;9.028;2022-12-18T15:39:23;6.60;;;4.70;;
24102;SDS011;12278;53.058;9.028;2022-12-18T15:43:24;6.50;;;4.83;;
24102;SDS011;12278;53.058;9.028;2022-12-18T15:47:35;7.10;;;4.50;;
24102;SDS011;12278;53.058;9.028;2022-12-18T15:51:36;12.47;;;8.20;;
24102;SDS011;12278;53.058;9.028;2022-12-18T15:55:37;5.70;;;4.60;;
24102;SDS011;12278;53.058;9.028;2022-12-18T15:59:57;7.27;;;4.93;;
24102;SDS011;12278;53.058;9.028;2022-12-18T16:03:58;6.80;;;4.73;;
24102;SDS011;12278;53.058;9.028;2022-12-18T16:07:59;10.10;;;4.27;;
24102;SDS011;12278;53.058;9.028;2022-12-18T16:12:00;9.57;;;5.80;;
24102;SDS011;12278;53.058;9.028;2022-12-18T16:16:00;6.63;;;4.67;;
24102;SDS011;12278;53.058;9.028;2022-12-18T16:20:01;6.17;;;4.43;;
24102;SDS011;12278;53.058;9.028;2022-12-18T16:24:02;7.40;;;4.40;;
24102;SDS011;12278;53.058;9.028;2022-12-18T16:28:03;4.63;;;3.63;;
24102;SDS011;12278;53.058;9.028;2022-12-18T16:32:03;5.97;;;4.10;;
24102;SDS011;12278;53.058;9.028;2022-12-18T16:36:10;9.37;;;5.30;;
24102;SDS011;12278;53.058;9.028;2022-12-18T16:40:15;7.93;;;4.47;;
24102;SDS011;12278;53.058;9.028;2022-12-18T16:44:19;9.60;;;4.87;;
24102;SDS011;12278;53.058;9.028;2022-12-18T16:48:29;13.10;;;5.07;;
24102;SDS011;12278;53.058;9.028;2022-12-18T16:52:30;5.97;;;4.27;;
24102;SDS011;12278;53.058;9.028;2022-12-18T16:56:31;7.87;;;5.40;;
24102;SDS011;12278;53.058;9.028;2022-12-18T17:00:31;8.73;;;4.90;;
24102;SDS011;12278;53.058;9.028;2022-12-18T17:04:32;6.43;;;4.93;;
24102;SDS011;12278;53.058;9.028;2022-12-18T17:08:33;9.83;;;6.03;;
24102;SDS011;12278;53.058;9.028;2022-12-18T17:12:33;7.63;;;5.17;;
24102;SDS011;12278;53.058;9.028;2022-12-18T17:16:36;9.60;;;5.60;;
24102;SDS011;12278;53.058;9.028;2022-12-18T17:20:37;7.83;;;5.23;;
24102;SDS011;12278;53.058;9.028;2022-12-18T17:24:37;8.37;;;5.73;;
24102;SDS011;12278;53.058;9.028;2022-12-18T17:28:38;10.37;;;5.90;;
24102;SDS011;12278;53.058;9.028;2022-12-18T17:32:40;9.07;;;5.80;;
24102;SDS011;12278;53.058;9.028;2022-12-18T17:36:40;10.53;;;6.10;;
24102;SDS011;12278;53.058;9.028;2022-12-18T17:40:41;9.83;;;5.57;;
24102;SDS011;12278;53.058;9.028;2022-12-18T17:44:42;9.57;;;5.77;;
24102;SDS011;12278;53.058;9.028;2022-12-18T17:48:44;9.47;;;6.73;;
24102;SDS011;12278;53.058;9.028;2022-12-18T17:57:42;10.47;;;5.93;;
24102;SDS011;12278;53.058;9.028;2022-12-18T18:01:42;11.17;;;6.30;;
24102;SDS011;12278;53.058;9.028;2022-12-18T18:05:44;10.37;;;7.10;;
24102;SDS011;12278;53.058;9.028;2022-12-18T18:09:45;8.87;;;7.23;;
24102;SDS011;12278;53.058;9.028;2022-12-18T18:13:46;11.07;;;7.57;;
24102;SDS011;12278;53.058;9.028;2022-12-18T18:18:10;10.47;;;6.87;;
24102;SDS011;12278;53.058;9.028;2022-12-18T18:22:11;12.17;;;6.63;;
24102;SDS011;12278;53.058;9.028;2022-12-18T18:26:12;10.43;;;6.87;;
24102;SDS011;12278;53.058;9.028;2022-12-18T18:30:20;8.00;;;6.00;;
24102;SDS011;12278;53.058;9.028;2022-12-18T18:34:25;9.40;;;6.10;;
24102;SDS011;12278;53.058;9.028;2022-12-18T18:38:27;8.43;;;5.83;;
24102;SDS011;12278;53.058;9.028;2022-12-18T18:42:28;10.60;;;5.73;;
24102;SDS011;12278;53.058;9.028;2022-12-18T18:46:45;8.87;;;5.80;;
24102;SDS011;12278;53.058;9.028;2022-12-18T18:50:56;10.03;;;5.87;;
24102;SDS011;12278;53.058;9.028;2022-12-18T18:59:09;7.97;;;5.63;;
24102;SDS011;12278;53.058;9.028;2022-12-18T19:03:10;10.90;;;6.37;;
24102;SDS011;12278;53.058;9.028;2022-12-18T19:07:17;10.33;;;5.67;;
24102;SDS011;12278;53.058;9.028;2022-12-18T19:11:18;8.93;;;5.17;;
24102;SDS011;12278;53.058;9.028;2022-12-18T19:15:38;8.67;;;6.30;;
24102;SDS011;12278;53.058;9.028;2022-12-18T19:19:49;7.93;;;5.27;;
24102;SDS011;12278;53.058;9.028;2022-12-18T19:23:50;8.80;;;6.10;;
24102;SDS011;12278;53.058;9.028;2022-12-18T19:27:51;10.43;;;6.17;;
24102;SDS011;12278;53.058;9.028;2022-12-18T19:31:51;7.13;;;5.23;;
24102;SDS011;12278;53.058;9.028;2022-12-18T19:35:52;7.67;;;5.63;;
24102;SDS011;12278;53.058;9.028;2022-12-18T19:39:53;7.77;;;6.10;;
24102;SDS011;12278;53.058;9.028;2022-12-18T19:43:54;8.10;;;5.83;;
24102;SDS011;12278;53.058;9.028;2022-12-18T19:47:55;12.73;;;5.83;;
24102;SDS011;12278;53.058;9.028;2022-12-18T19:51:55;9.40;;;5.77;;
24102;SDS011;12278;53.058;9.028;2022-12-18T19:55:56;7.90;;;5.50;;
24102;SDS011;12278;53.058;9.028;2022-12-18T19:59:56;8.70;;;5.73;;
24102;SDS011;12278;53.058;9.028;2022-12-18T20:03:57;7.00;;;5.63;;
24102;SDS011;12278;53.058;9.028;2022-12-18T20:08:00;10.73;;;6.03;;
24102;SDS011;12278;53.058;9.028;2022-12-18T20:12:01;8.83;;;5.57;;
24102;SDS011;12278;53.058;9.028;2022-12-18T20:16:02;10.60;;;6.90;;
24102;SDS011;12278;53.058;9.028;2022-12-18T20:20:11;8.23;;;5.83;;
24102;SDS011;12278;53.058;9.028;2022-12-18T20:24:12;8.53;;;5.93;;
24102;SDS011;12278;53.058;9.028;2022-12-18T20:28:19;9.27;;;6.70;;
24102;SDS011;12278;53.058;9.028;2022-12-18T20:32:20;11.13;;;6.37;;
24102;SDS011;12278;53.058;9.028;2022-12-18T20:36:21;8.67;;;6.53;;
24102;SDS011;12278;53.058;9.028;2022-12-18T20:40:22;7.87;;;6.23;;
24102;SDS011;12278;53.058;9.028;2022-12-18T20:44:23;10.37;;;6.70;;
24102;SDS011;12278;53.058;9.028;2022-12-18T20:48:32;13.40;;;6.90;;
24102;SDS011;12278;53.058;9.028;2022-12-18T20:52:34;9.37;;;6.67;;
24102;SDS011;12278;53.058;9.028;2022-12-18T21:00:45;8.60;;;5.63;;
24102;SDS011;12278;53.058;9.028;2022-12-18T21:04:46;10.10;;;6.60;;
24102;SDS011;12278;53.058;9.028;2022-12-18T21:08:47;11.70;;;6.77;;
24102;SDS011;12278;53.058;9.028;2022-12-18T21:12:50;8.23;;;6.27;;
24102;SDS011;12278;53.058;9.028;2022-12-18T21:16:52;9.07;;;6.23;;
24102;SDS011;12278;53.058;9.028;2022-12-18T21:20:53;10.67;;;7.37;;
24102;SDS011;12278;53.058;9.028;2022-12-18T21:24:53;7.80;;;5.73;;
24102;SDS011;12278;53.058;9.028;2022-12-18T21:28:59;9.90;;;6.57;;
24102;SDS011;12278;53.058;9.028;2022-12-18T21:33:01;10.47;;;7.00;;
24102;SDS011;12278;53.058;9.028;2022-12-18T21:37:02;10.07;;;6.70;;
24102;SDS011;12278;53.058;9.028;2022-12-18T21:41:07;11.97;;;6.93;;
24102;SDS011;12278;53.058;9.028;2022-12-18T21:45:08;7.67;;;6.40;;
24102;SDS011;12278;53.058;9.028;2022-12-18T21:53:30;8.17;;;5.87;;
24102;SDS011;12278;53.058;9.028;2022-12-18T21:57:31;9.07;;;6.60;;
24102;SDS011;12278;53.058;9.028;2022-12-18T22:01:49;9.03;;;6.60;;
24102;SDS011;12278;53.058;9.028;2022-12-18T22:05:51;12.93;;;6.67;;
24102;SDS011;12278;53.058;9.028;2022-12-18T22:09:55;9.07;;;6.30;;
24102;SDS011;12278;53.058;9.028;2022-12-18T22:14:02;11.53;;;7.57;;
24102;SDS011;12278;53.058;9.028;2022-12-18T22:18:03;8.73;;;6.00;;
24102;SDS011;12278;53.058;9.028;2022-12-18T22:22:04;10.87;;;6.73;;
24102;SDS011;12278;53.058;9.028;2022-12-18T22:26:05;10.27;;;6.90;;
24102;SDS011;12278;53.058;9.028;2022-12-18T22:30:05;11.07;;;6.63;;
24102;SDS011;12278;53.058;9.028;2022-12-18T22:34:07;8.70;;;6.60;;
24102;SDS011;12278;53.058;9.028;2022-12-18T22:38:20;7.80;;;6.30;;
24102;SDS011;12278;53.058;9.028;2022-12-18T22:42:21;10.67;;;6.30;;
24102;SDS011;12278;53.058;9.028;2022-12-18T22:46:22;10.50;;;6.10;;
24102;SDS011;12278;53.058;9.028;2022-12-18T22:50:24;8.70;;;5.33;;
24102;SDS011;12278;53.058;9.028;2022-12-18T22:54:24;10.83;;;6.70;;
24102;SDS011;12278;53.058;9.028;2022-12-18T22:58:28;10.63;;;7.13;;
24102;SDS011;12278;53.058;9.028;2022-12-18T23:02:29;9.50;;;7.03;;
24102;SDS011;12278;53.058;9.028;2022-12-18T23:06:29;10.07;;;6.83;;
24102;SDS011;12278;53.058;9.028;2022-12-18T23:10:36;12.73;;;7.10;;
24102;SDS011;12278;53.058;9.028;2022-12-18T23:14:37;10.77;;;6.90;;
24102;SDS011;12278;53.058;9.028;2022-12-18T23:18:38;9.63;;;6.40;;
24102;SDS011;12278;53.058;9.028;2022-12-18T23:22:39;8.57;;;5.83;;
24102;SDS011;12278;53.058;9.028;2022-12-18T23:26:40;8.83;;;6.20;;
24102;SDS011;12278;53.058;9.028;2022-12-18T23:30:41;11.57;;;7.20;;
24102;SDS011;12278;53.058;9.028;2022-12-18T23:34:41;14.13;;;6.80;;
24102;SDS011;12278;53.058;9.028;2022-12-18T23:38:46;9.43;;;7.03;;
24102;SDS011;12278;53.058;9.028;2022-12-18T23:42:48;12.60;;;6.97;;
24102;SDS011;12278;53.058;9.028;2022-12-18T23:46:48;11.80;;;7.03;;
24102;SDS011;12278;53.058;9.028;2022-12-18T23:50:56;10.33;;;6.47;;
24102;SDS011;12278;53.058;9.028;2022-12-18T23:54:57;11.03;;;6.47;;
24102;SDS011;12278;53.058;9.028;2022-12-18T23:58:58;13.53;;;7.23;;
